• Join FlightAware (Why Join?)
  • Login
  • US Flag 
05:19PM EDT


 

Airport Tracker/Info


-or-


 

Live Flight TrackerFlight Track Log ✈ N960DL ✈ 23-Apr-2013 ✈ KATL - KMEM

Flight Track Log - Related Links

Times and Time Zones

All times are in EDT time to prevent confusion due to time zone crossing. See the N960DL flight status page for this flight to view local times or setup timezone preferences in your user account.

Time Position Orientation Groundspeed Altitude Reporting Facility
EDT Latitude Longitude Course Direction KTS MPH feet Rate Location/Type
07:23PM 33.6500 -84.3667 252° West 179 206 2,300  Level Atlanta TRACON
07:24PM 33.6833 -84.3000 59° Northeast 259 298 4,600 2,700 Climbing Atlanta TRACON
07:25PM 33.8001 -84.3638 270° West  Level FlightAware Approximate
07:25PM 33.7500 -84.2833 12° North 282 325 7,700  Level Atlanta TRACON
07:26PM 33.8001 -84.5015 270° West  Level FlightAware Approximate
07:27PM 33.7941 -84.6381 252° West  Level FlightAware Approximate
07:27PM 33.8103 -84.4414 295° West 256 295 11,700  Level Atlanta Center
07:28PM 33.7581 -84.7687 252° West  Level FlightAware Approximate
07:28PM 33.8119 -84.5514 271° West 316 364 14,100  Level Atlanta Center
07:29PM 33.7219 -84.8993 252° West  Level FlightAware Approximate
07:29PM 33.7883 -84.6836 258° West 348 400 16,800  Level Atlanta Center
07:30PM 33.7564 -84.8083 253° West 377 434 18,900 2,100 Climbing Atlanta Center
07:31PM 33.7222 -84.9356 252° West 407 468 21,000 2,100 Climbing Atlanta Center
07:32PM 33.6919 -85.0675 255° West 407 468 23,100 1,500 Climbing Atlanta Center
07:33PM 33.6594 -85.1994 254° West 413 475 24,000 420 Climbing Atlanta Center
07:34PM 33.6517 -85.3339 266° West 413 475 24,000  Level Atlanta Center
07:35PM 33.6544 -85.4739 271° West 413 475 24,000  Level Atlanta Center
07:36PM 33.6611 -85.6111 273° West 419 482 24,000  Level Atlanta Center
07:37PM 33.6614 -85.7483 270° West 419 482 24,000  Level Atlanta Center
07:38PM 33.6597 -85.8683 269° West 413 475 24,000  Level Atlanta Center
07:39PM 33.6639 -86.0006 272° West 407 468 24,000  Level Atlanta Center
07:40PM 33.6658 -86.1378 271° West 407 468 24,000  Level Atlanta Center
07:41PM 33.6675 -86.2778 271° West 407 468 24,000  Level Atlanta Center
07:42PM 33.6689 -86.4175 271° West 412 474 24,000  Level Atlanta Center
07:43PM 33.6683 -86.5547 270° West 417 480 24,000  Level Atlanta Center
07:44PM 33.6697 -86.6922 271° West 417 480 24,000  Level Atlanta Center
07:45PM 33.6708 -86.8269 271° West 417 480 24,000  Level Atlanta Center
07:48PM 33.7889 -87.1506 294° West 409 471 24,000  Level Memphis Center
07:49PM 33.8442 -87.2686 299° West 417 480 24,000  Level Memphis Center
07:50PM 33.8992 -87.3892 299° West 406 467 24,000  Level Memphis Center
07:51PM 33.9478 -87.4953 299° West 406 467 24,000  Level Memphis Center
07:52PM 34.0047 -87.6161 300° West 406 467 24,000  Level Memphis Center
07:53PM 34.0636 -87.7369 300° West 406 467 24,000  Level Memphis Center
07:54PM 34.1203 -87.8556 300° West 411 473 24,000  Level Memphis Center
07:55PM 34.1789 -87.9744 301° West 411 473 24,000  Level Memphis Center
07:56PM 34.2375 -88.0958 300° West 411 473 24,000  Level Memphis Center
07:57PM 34.2981 -88.2150 302° West 411 473 24,000 -120 Level Memphis Center
07:58PM 34.3544 -88.3319 300° West 410 472 23,800 -660 Descending Memphis Center
07:59PM 34.4083 -88.4414 301° West 397 457 22,700 -1,080 Descending Memphis Center
08:00PM 34.4578 -88.5461 300° West 385 443 21,700 -1,020 Descending Memphis Center
08:01PM 34.5114 -88.6508 302° West 372 428 20,700 -960 Descending Memphis Center
08:02PM 34.5631 -88.7556 301° West 367 422 19,800 -960 Descending Memphis Center
08:03PM 34.6122 -88.8583 300° West 361 415 18,800 -960 Descending Memphis Center
08:04PM 34.6511 -88.9636 294° West 349 402 17,900 -900 Descending Memphis Center
08:05PM 34.6731 -89.0742 284° West 339 390 17,000 -900 Descending Memphis Center
08:06PM 34.6972 -89.1825 285° West 339 390 16,100 -900 Descending Memphis Center
08:07PM 34.7231 -89.2958 286° West 339 390 15,200 -1,020 Descending Memphis Center
08:08PM 34.7492 -89.4042 286° West 339 390 14,100 -1,200 Descending Memphis Center
08:09PM 34.7814 -89.5228 288° West 339 390 12,900 -1,200 Descending Memphis Center
08:10PM 34.8297 -89.6158 302° West 334 384 11,800 -960 Descending Memphis Center
08:11PM 34.8719 -89.7042 300° West 316 364 11,000 -780 Descending Memphis Center
08:12PM 34.9078 -89.7722 303° West 280 322 10,300 -1,080 Descending Memphis Center
08:13PM 34.9394 -89.8378 301° West 243 280 8,900 -1,080 Descending Memphis Center
08:14PM 34.9814 -89.8856 317° Northwest 220 253 8,200 -960 Descending Memphis Center
08:14PM 35.0333 -89.8833 North 279 321 7,500 -1,380 Descending KMEM
08:15PM 35.1000 -89.8667 12° North 259 298 6,100 -1,380 Descending KMEM
08:16PM 35.1231 -89.8672 359° North 224 258 5,500 -1,800 Descending Memphis Center
08:17PM 35.1692 -89.9100 323° Northwest 210 242 3,500 -1,740 Descending Memphis Center
08:18PM 35.1667 -89.9500 266° West 196 226 2,700 -1,320 Descending KMEM